KMIW

Details ICAO KMIW
Name MARSHALLTOWN MUNI
Region United States
Timezone America/Chicago (UTC-5.0)
Plans Departing 1
Arriving 2
Stats Elevation 974 ft / 297 m (AMSL)
Location 42.112670° -92.918231°
Runways 2
Magnetic Variation 0.179° E
Sunrise 2018-05-25 10:43:47 UTC / 2018-05-25 05:43:47 Local
Sunset 2018-05-26 01:36:22 UTC / 2018-05-25 20:36:22 Local
Advertisement - Login to hide

Runways

ID Width Length Bearing (true) Bearing (mag) Surface Threshold Offset Overrun Length
12 100 ft / 30 m 5,001 ft / 1,524 m 127.17° 126.99° Asphalt 0 ft / 0 m 0 ft / 0 m
18 50 ft / 15 m 2,808 ft / 856 m 183.54° 183.36° Asphalt 0 ft / 0 m 0 ft / 0 m
30 100 ft / 30 m 5,001 ft / 1,524 m 307.18° 307.00° Asphalt 0 ft / 0 m 0 ft / 0 m
36 50 ft / 15 m 2,808 ft / 856 m 3.54° 3.36° Asphalt 0 ft / 0 m 0 ft / 0 m

Map

Weather


0- 5 10 15 20 25 30 35+ Temperature / ° C

Clouds and Precipitation
Forecast for 2018-05-26 00:00 UTC. Updated 5 hours ago

Ground ~20,000 ft ~40,000 ft Winds

METAR

KMIW 260353Z AUTO 17006KT 10SM CLR 23/21 A2975 RMK AO2 LTG DSNT N SLP066 T02280206

TAF

Not found

Frequencies

Recorded 128.32 MHz ASOS
Clearance 120.90 MHz WATERLOO CLNC DEL
Unicom 122.80 MHz CTAF/UNICOM
Approach 120.90 MHz WATERLOO APP/DEP
Warning: Do not use this data for real-world aviation or navigation. No guarantee of current accuracy is given.